Time;durP1;ratioP1;P1;durP2;ratioP2;P2;SDS_P1;SDS_P2;PMS_P1;PMS_P2;Temp;Humidity;BMP_temperature;BMP_pressure;BME280_temperature;BME280_humidity;BME280_pressure;Samples;Min_cycle;Max_cycle;Signal;HPM_P1;HPM_P2
2023/10/15 00:00:18;;;;;;;1999.90;999.90;;;;;;;;;;5066119;28;20191;-68
2023/10/15 00:02:46;;;;;;;1999.90;999.90;;;;;;;;;;5066055;28;20282;-67
2023/10/15 00:05:15;;;;;;;1999.90;999.90;;;;;;;;;;5067436;28;20218;-69
2023/10/15 00:07:42;;;;;;;1999.90;999.90;;;;;;;;;;5085610;28;20205;-67
2023/10/15 00:10:11;;;;;;;1999.90;999.90;;;;;;;;;;5087050;28;20243;-66
2023/10/15 00:12:40;;;;;;;1999.90;999.90;;;;;;;;;;5085269;28;20190;-66
2023/10/15 00:15:13;;;;;;;1999.90;999.90;;;;;;;;;;5086408;28;20555;-68
2023/10/15 00:17:40;;;;;;;1999.90;999.90;;;;;;;;;;5085777;28;20197;-67
2023/10/15 00:20:13;;;;;;;1999.90;999.90;;;;;;;;;;5086385;28;20190;-67
2023/10/15 00:22:42;;;;;;;1999.90;999.90;;;;;;;;;;5086316;28;20722;-66
2023/10/15 00:25:12;;;;;;;1999.90;999.90;;;;;;;;;;5085297;28;20217;-64
2023/10/15 00:27:41;;;;;;;1999.90;999.90;;;;;;;;;;5086415;28;20201;-65
2023/10/15 00:30:12;;;;;;;1999.90;999.90;;;;;;;;;;5085684;28;20241;-66
2023/10/15 00:32:42;;;;;;;1999.90;999.90;;;;;;;;;;5086384;28;20552;-68
2023/10/15 00:35:10;;;;;;;1999.90;999.90;;;;;;;;;;5077409;28;20196;-69
2023/10/15 00:37:40;;;;;;;1999.90;999.90;;;;;;;;;;5051684;28;20207;-70
2023/10/15 00:40:16;;;;;;;1999.90;999.90;;;;;;;;;;5056138;28;20263;-63
2023/10/15 00:42:46;;;;;;;1999.90;999.90;;;;;;;;;;5064459;28;20222;-65
2023/10/15 00:45:14;;;;;;;1999.90;999.90;;;;;;;;;;5066163;28;21048;-63
2023/10/15 00:47:42;;;;;;;1999.90;999.90;;;;;;;;;;5065076;28;20652;-64
2023/10/15 00:50:10;;;;;;;1999.90;999.90;;;;;;;;;;5065954;28;20665;-64
2023/10/15 00:52:42;;;;;;;1999.90;999.90;;;;;;;;;;5065728;28;20224;-67
2023/10/15 00:55:13;;;;;;;1999.90;999.90;;;;;;;;;;5064909;28;20249;-65
2023/10/15 00:57:42;;;;;;;1999.90;999.90;;;;;;;;;;5066205;28;20213;-65
2023/10/15 01:00:37;;;;;;;1999.90;999.90;;;;;;;;;;5066754;28;20210;-63
2023/10/15 01:03:05;;;;;;;1999.90;999.90;;;;;;;;;;5068183;28;20201;-65
2023/10/15 01:05:45;;;;;;;1999.90;999.90;;;;;;;;;;5073852;28;20201;-63
2023/10/15 01:08:16;;;;;;;1999.90;999.90;;;;;;;;;;5083396;28;20499;-63
2023/10/15 01:10:44;;;;;;;1999.90;999.90;;;;;;;;;;5069843;28;20198;-65
2023/10/15 01:13:17;;;;;;;1999.90;999.90;;;;;;;;;;5084349;28;20229;-63
2023/10/15 01:15:51;;;;;;;1999.90;999.90;;;;;;;;;;5069044;28;20680;-66
2023/10/15 01:18:18;;;;;;;1999.90;999.90;;;;;;;;;;5084078;28;20263;-71
2023/10/15 01:20:45;;;;;;;1999.90;999.90;;;;;;;;;;5068580;28;20671;-66
2023/10/15 01:23:28;;;;;;;1999.90;999.90;;;;;;;;;;5068440;28;20204;-65
2023/10/15 01:25:59;;;;;;;1999.90;999.90;;;;;;;;;;5068084;28;20186;-69
2023/10/15 01:28:36;;;;;;;1999.90;999.90;;;;;;;;;;5068381;28;20253;-64
2023/10/15 01:31:05;;;;;;;1999.90;999.90;;;;;;;;;;5068361;28;20672;-65
2023/10/15 01:33:36;;;;;;;1999.90;999.90;;;;;;;;;;5069303;28;20192;-66
2023/10/15 01:36:06;;;;;;;1999.90;999.90;;;;;;;;;;5068437;28;20205;-64
2023/10/15 01:38:35;;;;;;;1999.90;999.90;;;;;;;;;;5068577;28;20238;-71
2023/10/15 01:41:06;;;;;;;1999.90;999.90;;;;;;;;;;5069360;28;20210;-63
2023/10/15 01:43:35;;;;;;;1999.90;999.90;;;;;;;;;;5068408;28;20218;-71
2023/10/15 01:46:10;;;;;;;1999.90;999.90;;;;;;;;;;5068852;28;20272;-65
2023/10/15 01:48:41;;;;;;;1999.90;999.90;;;;;;;;;;5069118;28;20220;-63
2023/10/15 01:51:09;;;;;;;1999.90;999.90;;;;;;;;;;5068380;28;20218;-67
2023/10/15 01:53:37;;;;;;;1999.90;999.90;;;;;;;;;;5069175;28;20277;-64
2023/10/15 01:56:16;;;;;;;1999.90;999.90;;;;;;;;;;5067280;28;20202;-63
2023/10/15 01:58:44;;;;;;;1999.90;999.90;;;;;;;;;;5069734;28;20223;-64
2023/10/15 02:01:20;;;;;;;1999.90;999.90;;;;;;;;;;5068004;28;20685;-65
2023/10/15 02:03:48;;;;;;;1999.90;999.90;;;;;;;;;;5067496;28;20229;-69
2023/10/15 02:06:19;;;;;;;1999.90;999.90;;;;;;;;;;5076621;28;20658;-65
2023/10/15 02:08:51;;;;;;;1999.90;999.90;;;;;;;;;;5088857;28;20267;-68
2023/10/15 02:11:22;;;;;;;1999.90;999.90;;;;;;;;;;5088654;28;20681;-66
2023/10/15 02:13:49;;;;;;;1999.90;999.90;;;;;;;;;;5088422;28;20221;-65
2023/10/15 02:16:18;;;;;;;1999.90;999.90;;;;;;;;;;5088886;28;20193;-65
2023/10/15 02:18:46;;;;;;;1999.90;999.90;;;;;;;;;;5088286;28;20246;-65
2023/10/15 02:21:16;;;;;;;1999.90;999.90;;;;;;;;;;5088847;28;20202;-68
2023/10/15 02:23:52;;;;;;;1999.90;999.90;;;;;;;;;;5088885;28;20681;-66
2023/10/15 02:26:23;;;;;;;1999.90;999.90;;;;;;;;;;5087903;28;20174;-66
2023/10/15 02:28:53;;;;;;;1999.90;999.90;;;;;;;;;;5088944;28;20240;-68
2023/10/15 02:31:22;;;;;;;1999.90;999.90;;;;;;;;;;5087890;28;20637;-66
2023/10/15 02:33:51;;;;;;;1999.90;999.90;;;;;;;;;;5088885;28;20216;-65
2023/10/15 02:36:23;;;;;;;1999.90;999.90;;;;;;;;;;5067922;28;20191;-67
2023/10/15 02:38:54;;;;;;;1999.90;999.90;;;;;;;;;;5068028;28;20466;-64
2023/10/15 02:41:25;;;;;;;1999.90;999.90;;;;;;;;;;5068362;28;20283;-65
2023/10/15 02:43:55;;;;;;;1999.90;999.90;;;;;;;;;;5067515;28;20182;-66
2023/10/15 02:46:29;;;;;;;1999.90;999.90;;;;;;;;;;5066754;28;20605;-66
2023/10/15 02:48:56;;;;;;;1999.90;999.90;;;;;;;;;;5066923;28;20209;-62
2023/10/15 02:51:27;;;;;;;1999.90;999.90;;;;;;;;;;5067709;28;20220;-64
2023/10/15 02:54:09;;;;;;;1999.90;999.90;;;;;;;;;;5067580;28;20183;-63
2023/10/15 02:56:41;;;;;;;1999.90;999.90;;;;;;;;;;5065545;28;20190;-66
2023/10/15 02:59:08;;;;;;;1999.90;999.90;;;;;;;;;;5067549;28;20223;-62
2023/10/15 03:01:36;;;;;;;1999.90;999.90;;;;;;;;;;5066794;28;20258;-67
2023/10/15 03:04:09;;;;;;;1999.90;999.90;;;;;;;;;;5067494;28;20345;-62
2023/10/15 03:06:41;;;;;;;1999.90;999.90;;;;;;;;;;5079638;28;20292;-65
2023/10/15 03:09:11;;;;;;;1999.90;999.90;;;;;;;;;;5087018;28;20183;-65
2023/10/15 03:11:48;;;;;;;1999.90;999.90;;;;;;;;;;5086310;28;20571;-64
2023/10/15 03:14:16;;;;;;;1999.90;999.90;;;;;;;;;;5086648;28;20194;-63
2023/10/15 03:16:44;;;;;;;1999.90;999.90;;;;;;;;;;5086604;28;20669;-66
2023/10/15 03:19:18;;;;;;;1999.90;999.90;;;;;;;;;;5085175;28;20323;-65
2023/10/15 03:21:45;;;;;;;1999.90;999.90;;;;;;;;;;5087487;28;20268;-64
2023/10/15 03:24:16;;;;;;;1999.90;999.90;;;;;;;;;;5086874;28;20194;-64
2023/10/15 03:26:47;;;;;;;1999.90;999.90;;;;;;;;;;5087032;28;20185;-65
2023/10/15 03:29:15;;;;;;;1999.90;999.90;;;;;;;;;;5087260;28;20310;-68
2023/10/15 03:31:46;;;;;;;1999.90;999.90;;;;;;;;;;5086355;28;20201;-66
2023/10/15 03:34:22;;;;;;;1999.90;999.90;;;;;;;;;;5086592;28;20194;-63
2023/10/15 03:36:51;;;;;;;1999.90;999.90;;;;;;;;;;5066175;28;20187;-67
2023/10/15 03:39:25;;;;;;;1999.90;999.90;;;;;;;;;;5065860;28;20225;-63
2023/10/15 03:42:09;;;;;;;1999.90;999.90;;;;;;;;;;5065398;28;20187;-66
2023/10/15 03:44:36;;;;;;;1999.90;999.90;;;;;;;;;;5063897;28;20205;-66
2023/10/15 03:47:04;;;;;;;1999.90;999.90;;;;;;;;;;5066099;28;20665;-63
2023/10/15 03:49:32;;;;;;;1999.90;999.90;;;;;;;;;;5065577;28;20195;-63
2023/10/15 03:52:06;;;;;;;1999.90;999.90;;;;;;;;;;5065569;28;20191;-63
2023/10/15 03:54:33;;;;;;;1999.90;999.90;;;;;;;;;;5065384;28;20194;-64
2023/10/15 03:57:02;;;;;;;1999.90;999.90;;;;;;;;;;5065651;28;20650;-63
2023/10/15 03:59:30;;;;;;;1999.90;999.90;;;;;;;;;;5065203;28;20700;-64
2023/10/15 04:01:58;;;;;;;1999.90;999.90;;;;;;;;;;5065151;28;20595;-64
2023/10/15 04:04:25;;;;;;;1999.90;999.90;;;;;;;;;;5065817;28;20495;-65
2023/10/15 04:06:53;;;;;;;1999.90;999.90;;;;;;;;;;5081092;28;20199;-62
2023/10/15 04:09:27;;;;;;;1999.90;999.90;;;;;;;;;;5086266;28;20473;-63
2023/10/15 04:11:55;;;;;;;1999.90;999.90;;;;;;;;;;5086382;28;20648;-62
2023/10/15 04:14:28;;;;;;;1999.90;999.90;;;;;;;;;;5085260;28;20202;-64
2023/10/15 04:16:57;;;;;;;1999.90;999.90;;;;;;;;;;5086927;28;20265;-62
2023/10/15 04:19:27;;;;;;;1999.90;999.90;;;;;;;;;;5085090;28;20236;-65
2023/10/15 04:21:59;;;;;;;1999.90;999.90;;;;;;;;;;5085262;28;20204;-63
2023/10/15 04:24:36;;;;;;;1999.90;999.90;;;;;;;;;;5085143;28;20186;-63
2023/10/15 04:27:06;;;;;;;1999.90;999.90;;;;;;;;;;5086855;28;20176;-63
2023/10/15 04:29:43;;;;;;;1999.90;999.90;;;;;;;;;;5086074;28;20358;-62
2023/10/15 04:32:17;;;;;;;1999.90;999.90;;;;;;;;;;5083600;28;20197;-62
2023/10/15 04:34:46;;;;;;;1999.90;999.90;;;;;;;;;;5081110;28;20264;-64
2023/10/15 04:37:17;;;;;;;1999.90;999.90;;;;;;;;;;5064879;28;20226;-63
2023/10/15 04:39:53;;;;;;;1999.90;999.90;;;;;;;;;;5066377;28;20272;-63
2023/10/15 04:42:27;;;;;;;1999.90;999.90;;;;;;;;;;5065313;28;20266;-66
2023/10/15 04:44:57;;;;;;;1999.90;999.90;;;;;;;;;;5065053;28;20286;-67
2023/10/15 04:47:28;;;;;;;1999.90;999.90;;;;;;;;;;5064453;28;20542;-64
2023/10/15 04:49:58;;;;;;;1999.90;999.90;;;;;;;;;;5065213;28;20198;-68
2023/10/15 04:52:25;;;;;;;1999.90;999.90;;;;;;;;;;5065657;28;20217;-62
2023/10/15 04:54:55;;;;;;;1999.90;999.90;;;;;;;;;;5065287;28;20206;-62
2023/10/15 04:57:24;;;;;;;1999.90;999.90;;;;;;;;;;5063641;28;20204;-61
2023/10/15 04:59:51;;;;;;;1999.90;999.90;;;;;;;;;;5065942;28;20226;-63
2023/10/15 05:02:21;;;;;;;1999.90;999.90;;;;;;;;;;5064704;28;20263;-62
2023/10/15 05:04:49;;;;;;;1999.90;999.90;;;;;;;;;;5066003;28;20287;-61
2023/10/15 05:07:16;;;;;;;1999.90;999.90;;;;;;;;;;5081346;28;20665;-60
2023/10/15 05:09:44;;;;;;;1999.90;999.90;;;;;;;;;;5086138;28;20198;-59
2023/10/15 05:12:13;;;;;;;1999.90;999.90;;;;;;;;;;5084536;28;20205;-60
2023/10/15 05:14:40;;;;;;;1999.90;999.90;;;;;;;;;;5084205;28;20193;-61
2023/10/15 05:17:08;;;;;;;1999.90;999.90;;;;;;;;;;5085781;28;20282;-62
2023/10/15 05:19:37;;;;;;;1999.90;999.90;;;;;;;;;;5083972;28;20229;-62
2023/10/15 05:22:05;;;;;;;1999.90;999.90;;;;;;;;;;5086052;28;20198;-60
2023/10/15 05:24:32;;;;;;;1999.90;999.90;;;;;;;;;;5068153;28;20651;-60
2023/10/15 05:27:00;;;;;;;1999.90;999.90;;;;;;;;;;5065861;28;20197;-61
2023/10/15 05:29:27;;;;;;;1999.90;999.90;;;;;;;;;;5064401;28;20330;-61
2023/10/15 05:31:54;;;;;;;1999.90;999.90;;;;;;;;;;5065671;28;20194;-62
2023/10/15 05:34:22;;;;;;;1999.90;999.90;;;;;;;;;;5064655;28;20264;-60
2023/10/15 05:36:50;;;;;;;1999.90;999.90;;;;;;;;;;5065250;28;20195;-61
2023/10/15 05:39:18;;;;;;;1999.90;999.90;;;;;;;;;;5065140;28;20217;-61
2023/10/15 05:41:45;;;;;;;1999.90;999.90;;;;;;;;;;5064622;28;20198;-61
2023/10/15 05:44:13;;;;;;;1999.90;999.90;;;;;;;;;;5064995;28;20198;-61
2023/10/15 05:46:40;;;;;;;1999.90;999.90;;;;;;;;;;5065740;28;20539;-62
2023/10/15 05:49:08;;;;;;;1999.90;999.90;;;;;;;;;;5069313;28;20282;-61
2023/10/15 05:51:35;;;;;;;1999.90;999.90;;;;;;;;;;5066772;28;20204;-62
2023/10/15 05:54:04;;;;;;;1999.90;999.90;;;;;;;;;;5068347;28;20572;-61
2023/10/15 05:56:33;;;;;;;1999.90;999.90;;;;;;;;;;5067072;28;20210;-62
2023/10/15 05:59:01;;;;;;;1999.90;999.90;;;;;;;;;;5067944;28;20587;-63
2023/10/15 06:01:28;;;;;;;1999.90;999.90;;;;;;;;;;5068696;28;20219;-62
2023/10/15 06:03:55;;;;;;;1999.90;999.90;;;;;;;;;;5067835;28;20206;-64
2023/10/15 06:06:22;;;;;;;1999.90;999.90;;;;;;;;;;5079218;28;20207;-62
2023/10/15 06:08:50;;;;;;;1999.90;999.90;;;;;;;;;;5088831;28;20191;-61
2023/10/15 06:11:19;;;;;;;1999.90;999.90;;;;;;;;;;5087900;28;20196;-61
2023/10/15 06:13:46;;;;;;;1999.90;999.90;;;;;;;;;;5088314;28;20192;-62
2023/10/15 06:16:18;;;;;;;1999.90;999.90;;;;;;;;;;5087669;28;20273;-63
2023/10/15 06:18:45;;;;;;;1999.90;999.90;;;;;;;;;;5088971;28;20193;-62
2023/10/15 06:21:13;;;;;;;1999.90;999.90;;;;;;;;;;5087802;28;20230;-64
2023/10/15 06:23:41;;;;;;;1999.90;999.90;;;;;;;;;;5088565;28;20376;-66
2023/10/15 06:26:09;;;;;;;1999.90;999.90;;;;;;;;;;5087873;28;20198;-63
2023/10/15 06:28:37;;;;;;;1999.90;999.90;;;;;;;;;;5087726;28;20422;-63
2023/10/15 06:31:05;;;;;;;1999.90;999.90;;;;;;;;;;5088027;28;20745;-65
2023/10/15 06:33:32;;;;;;;1999.90;999.90;;;;;;;;;;5086938;28;20292;-66
2023/10/15 06:35:59;;;;;;;1999.90;999.90;;;;;;;;;;5073467;28;20205;-64
2023/10/15 06:38:27;;;;;;;1999.90;999.90;;;;;;;;;;5066620;28;20796;-65
2023/10/15 06:40:54;;;;;;;1999.90;999.90;;;;;;;;;;5067808;28;20677;-62
2023/10/15 06:43:21;;;;;;;1999.90;999.90;;;;;;;;;;5066976;28;20798;-62
2023/10/15 06:45:51;;;;;;;1999.90;999.90;;;;;;;;;;5066354;28;20205;-62
2023/10/15 06:48:18;;;;;;;1999.90;999.90;;;;;;;;;;5067455;28;20190;-62
2023/10/15 06:50:46;;;;;;;1999.90;999.90;;;;;;;;;;5067229;28;20732;-64
2023/10/15 06:53:13;;;;;;;1999.90;999.90;;;;;;;;;;5067762;28;20827;-62
2023/10/15 06:55:42;;;;;;;1999.90;999.90;;;;;;;;;;5066730;28;20205;-63
2023/10/15 06:58:10;;;;;;;1999.90;999.90;;;;;;;;;;5065868;28;20646;-62
2023/10/15 07:00:37;;;;;;;1999.90;999.90;;;;;;;;;;5066749;28;20214;-62
2023/10/15 07:03:06;;;;;;;1999.90;999.90;;;;;;;;;;5067055;28;20190;-63
2023/10/15 07:05:36;;;;;;;1999.90;999.90;;;;;;;;;;5068884;28;20194;-61
2023/10/15 07:08:03;;;;;;;1999.90;999.90;;;;;;;;;;5066363;28;20194;-62
2023/10/15 07:10:31;;;;;;;1999.90;999.90;;;;;;;;;;5065935;28;20575;-62
2023/10/15 07:12:59;;;;;;;1999.90;999.90;;;;;;;;;;5066063;28;20206;-61
2023/10/15 07:15:26;;;;;;;1999.90;999.90;;;;;;;;;;5065934;28;20206;-62
2023/10/15 07:17:54;;;;;;;1999.90;999.90;;;;;;;;;;5065542;28;20206;-61
2023/10/15 07:20:24;;;;;;;1999.90;999.90;;;;;;;;;;5065564;28;20280;-62
2023/10/15 07:22:53;;;;;;;1999.90;999.90;;;;;;;;;;5067367;28;20550;-61
2023/10/15 07:25:21;;;;;;;1999.90;999.90;;;;;;;;;;5066538;28;20201;-62
2023/10/15 07:27:51;;;;;;;1999.90;999.90;;;;;;;;;;5066079;28;20199;-63
2023/10/15 07:30:20;;;;;;;1999.90;999.90;;;;;;;;;;5066212;28;20251;-68
2023/10/15 07:32:47;;;;;;;1999.90;999.90;;;;;;;;;;5064969;28;20256;-67
2023/10/15 07:35:15;;;;;;;1999.90;999.90;;;;;;;;;;5066218;28;20196;-62
2023/10/15 07:37:44;;;;;;;1999.90;999.90;;;;;;;;;;5065752;28;20249;-66
2023/10/15 07:40:17;;;;;;;1999.90;999.90;;;;;;;;;;5065321;28;20210;-62
2023/10/15 07:42:45;;;;;;;1999.90;999.90;;;;;;;;;;5064810;28;20226;-67
2023/10/15 07:45:13;;;;;;;1999.90;999.90;;;;;;;;;;5066491;28;20191;-63
2023/10/15 07:47:40;;;;;;;1999.90;999.90;;;;;;;;;;5064943;28;20194;-63
2023/10/15 07:50:08;;;;;;;1999.90;999.90;;;;;;;;;;5066060;28;20218;-63
2023/10/15 07:52:37;;;;;;;1999.90;999.90;;;;;;;;;;5064547;28;20195;-67
2023/10/15 07:55:07;;;;;;;1999.90;999.90;;;;;;;;;;5065593;28;20238;-67
2023/10/15 07:57:35;;;;;;;1999.90;999.90;;;;;;;;;;5065467;28;20633;-67
2023/10/15 08:00:04;;;;;;;1999.90;999.90;;;;;;;;;;5065417;28;20202;-67
2023/10/15 08:02:31;;;;;;;1999.90;999.90;;;;;;;;;;5066057;28;20691;-65
2023/10/15 08:05:00;;;;;;;1999.90;999.90;;;;;;;;;;5065808;28;20193;-66
2023/10/15 08:07:28;;;;;;;1999.90;999.90;;;;;;;;;;5085814;28;20881;-67
2023/10/15 08:09:55;;;;;;;1999.90;999.90;;;;;;;;;;5085514;28;20198;-63
2023/10/15 08:12:27;;;;;;;1999.90;999.90;;;;;;;;;;5086355;28;20198;-66
2023/10/15 08:14:57;;;;;;;1999.90;999.90;;;;;;;;;;5086545;28;20513;-65
2023/10/15 08:17:26;;;;;;;1999.90;999.90;;;;;;;;;;5085528;28;20233;-68
2023/10/15 08:19:54;;;;;;;1999.90;999.90;;;;;;;;;;5086845;28;20182;-63
2023/10/15 08:22:21;;;;;;;1999.90;999.90;;;;;;;;;;5085285;28;20221;-66
2023/10/15 08:24:48;;;;;;;1999.90;999.90;;;;;;;;;;5085965;28;20610;-66
2023/10/15 08:27:16;;;;;;;1999.90;999.90;;;;;;;;;;5081464;28;20191;-69
2023/10/15 08:29:45;;;;;;;1999.90;999.90;;;;;;;;;;5065258;28;21015;-65
2023/10/15 08:32:16;;;;;;;1999.90;999.90;;;;;;;;;;5064396;28;20999;-63
2023/10/15 08:34:44;;;;;;;1999.90;999.90;;;;;;;;;;5064294;28;20187;-65
2023/10/15 08:37:11;;;;;;;1999.90;999.90;;;;;;;;;;5064294;28;20203;-68
2023/10/15 08:39:39;;;;;;;1999.90;999.90;;;;;;;;;;5064480;28;20285;-64
2023/10/15 08:42:11;;;;;;;1999.90;999.90;;;;;;;;;;5064337;28;20618;-63
2023/10/15 08:44:40;;;;;;;1999.90;999.90;;;;;;;;;;5063425;28;20233;-69
2023/10/15 08:47:11;;;;;;;1999.90;999.90;;;;;;;;;;5065772;28;20226;-64
2023/10/15 08:49:41;;;;;;;1999.90;999.90;;;;;;;;;;5061952;28;20199;-64
2023/10/15 08:52:09;;;;;;;1999.90;999.90;;;;;;;;;;5063342;28;20777;-65
2023/10/15 08:54:38;;;;;;;1999.90;999.90;;;;;;;;;;5065039;28;20187;-65
2023/10/15 08:57:07;;;;;;;1999.90;999.90;;;;;;;;;;5065421;28;20207;-67
2023/10/15 08:59:35;;;;;;;1999.90;999.90;;;;;;;;;;5064415;28;20203;-65
2023/10/15 09:02:02;;;;;;;1999.90;999.90;;;;;;;;;;5065049;28;20223;-64
2023/10/15 09:04:38;;;;;;;1999.90;999.90;;;;;;;;;;5065001;28;20196;-65
2023/10/15 09:07:06;;;;;;;1999.90;999.90;;;;;;;;;;5074544;28;20631;-64
2023/10/15 09:09:33;;;;;;;1999.90;999.90;;;;;;;;;;5056722;28;20262;-64
2023/10/15 09:12:01;;;;;;;1999.90;999.90;;;;;;;;;;5066160;28;20200;-65
2023/10/15 09:14:42;;;;;;;1999.90;999.90;;;;;;;;;;5064391;28;20187;-65
2023/10/15 09:17:11;;;;;;;1999.90;999.90;;;;;;;;;;5072807;28;20183;-65
2023/10/15 09:19:41;;;;;;;1999.90;999.90;;;;;;;;;;5085308;28;20515;-64
2023/10/15 09:22:14;;;;;;;1999.90;999.90;;;;;;;;;;5088800;28;20599;-65
2023/10/15 09:24:41;;;;;;;1999.90;999.90;;;;;;;;;;5088017;28;20196;-63
2023/10/15 09:27:09;;;;;;;1999.90;999.90;;;;;;;;;;5088867;28;20204;-63
2023/10/15 09:29:36;;;;;;;1999.90;999.90;;;;;;;;;;5089537;28;20198;-64
2023/10/15 09:32:04;;;;;;;1999.90;999.90;;;;;;;;;;5074177;28;20188;-65
2023/10/15 09:34:31;;;;;;;1999.90;999.90;;;;;;;;;;5068239;28;20284;-67
2023/10/15 09:37:01;;;;;;;1999.90;999.90;;;;;;;;;;5068284;28;20195;-65
2023/10/15 09:39:29;;;;;;;1999.90;999.90;;;;;;;;;;5069013;28;20227;-65
2023/10/15 09:41:57;;;;;;;1999.90;999.90;;;;;;;;;;5068930;28;20561;-64
2023/10/15 09:44:25;;;;;;;1999.90;999.90;;;;;;;;;;5067662;28;20196;-66
2023/10/15 09:46:52;;;;;;;1999.90;999.90;;;;;;;;;;5067608;28;20853;-64
2023/10/15 09:49:22;;;;;;;1999.90;999.90;;;;;;;;;;5066486;28;20188;-62
2023/10/15 09:51:50;;;;;;;1999.90;999.90;;;;;;;;;;5068779;28;20199;-62
2023/10/15 09:54:20;;;;;;;1999.90;999.90;;;;;;;;;;5068247;28;20733;-62
2023/10/15 09:56:48;;;;;;;1999.90;999.90;;;;;;;;;;5067974;28;20224;-66
2023/10/15 09:59:15;;;;;;;1999.90;999.90;;;;;;;;;;5047472;28;20215;-62
2023/10/15 10:01:45;;;;;;;1999.90;999.90;;;;;;;;;;5047543;28;20228;-64
2023/10/15 10:04:24;;;;;;;1999.90;999.90;;;;;;;;;;5047724;28;20283;-62
2023/10/15 10:07:10;;;;;;;1999.90;999.90;;;;;;;;;;5076736;28;20192;-62
2023/10/15 10:09:55;;;;;;;1999.90;999.90;;;;;;;;;;5087021;28;20195;-62
2023/10/15 10:12:28;;;;;;;1999.90;999.90;;;;;;;;;;5067460;28;20208;-63
2023/10/15 10:15:06;;;;;;;1999.90;999.90;;;;;;;;;;5087731;28;20194;-62
2023/10/15 10:17:34;;;;;;;1999.90;999.90;;;;;;;;;;5088780;28;20185;-62
2023/10/15 10:20:10;;;;;;;1999.90;999.90;;;;;;;;;;5088265;28;20281;-63
2023/10/15 10:22:38;;;;;;;1999.90;999.90;;;;;;;;;;5087981;28;20214;-63
2023/10/15 10:25:05;;;;;;;1999.90;999.90;;;;;;;;;;5087869;28;20192;-65
2023/10/15 10:27:43;;;;;;;1999.90;999.90;;;;;;;;;;5088001;28;20196;-63
2023/10/15 10:30:23;;;;;;;1999.90;999.90;;;;;;;;;;5088570;28;20698;-62
2023/10/15 10:32:51;;;;;;;1999.90;999.90;;;;;;;;;;5086908;28;20180;-63
2023/10/15 10:35:20;;;;;;;1999.90;999.90;;;;;;;;;;5078254;28;20200;-64
2023/10/15 10:38:03;;;;;;;1999.90;999.90;;;;;;;;;;5067533;28;20192;-64
2023/10/15 10:40:47;;;;;;;1999.90;999.90;;;;;;;;;;5067657;28;20544;-63
2023/10/15 10:43:21;;;;;;;1999.90;999.90;;;;;;;;;;5067936;28;20214;-63
2023/10/15 10:45:51;;;;;;;1999.90;999.90;;;;;;;;;;5067038;28;20545;-64
2023/10/15 10:48:21;;;;;;;1999.90;999.90;;;;;;;;;;5067558;28;20201;-63
2023/10/15 10:50:49;;;;;;;1999.90;999.90;;;;;;;;;;5067536;28;20212;-64
2023/10/15 10:53:18;;;;;;;1999.90;999.90;;;;;;;;;;5067287;28;20862;-63
2023/10/15 10:55:45;;;;;;;1999.90;999.90;;;;;;;;;;5066330;28;20199;-64
2023/10/15 10:58:26;;;;;;;1999.90;999.90;;;;;;;;;;5066746;28;20970;-65
2023/10/15 11:00:54;;;;;;;1999.90;999.90;;;;;;;;;;5067245;28;20197;-65
2023/10/15 11:03:21;;;;;;;1999.90;999.90;;;;;;;;;;5066970;28;20226;-65
2023/10/15 11:05:49;;;;;;;1999.90;999.90;;;;;;;;;;5073193;28;20206;-65
2023/10/15 11:08:19;;;;;;;1999.90;999.90;;;;;;;;;;5087434;28;20202;-66
2023/10/15 11:10:47;;;;;;;1999.90;999.90;;;;;;;;;;5086743;28;20564;-66
2023/10/15 11:13:15;;;;;;;1999.90;999.90;;;;;;;;;;5087512;28;20194;-64
2023/10/15 11:15:45;;;;;;;1999.90;999.90;;;;;;;;;;5086784;28;20249;-64
2023/10/15 11:18:13;;;;;;;1999.90;999.90;;;;;;;;;;5087449;28;20204;-65
2023/10/15 11:20:41;;;;;;;1999.90;999.90;;;;;;;;;;5087213;28;20200;-65
2023/10/15 11:23:08;;;;;;;1999.90;999.90;;;;;;;;;;5086163;28;20233;-65
2023/10/15 11:25:36;;;;;;;1999.90;999.90;;;;;;;;;;5087343;28;20224;-64
2023/10/15 11:28:05;;;;;;;1999.90;999.90;;;;;;;;;;5086611;28;20194;-66
2023/10/15 11:30:33;;;;;;;1999.90;999.90;;;;;;;;;;5085762;28;20632;-64
2023/10/15 11:33:07;;;;;;;1999.90;999.90;;;;;;;;;;5085661;28;20583;-65
2023/10/15 11:35:34;;;;;;;1999.90;999.90;;;;;;;;;;5075404;28;20193;-64
2023/10/15 11:38:08;;;;;;;1999.90;999.90;;;;;;;;;;5066065;28;20205;-67
2023/10/15 11:40:38;;;;;;;1999.90;999.90;;;;;;;;;;5066606;28;20228;-64
2023/10/15 11:43:12;;;;;;;1999.90;999.90;;;;;;;;;;5066243;28;20219;-63
2023/10/15 11:45:41;;;;;;;1999.90;999.90;;;;;;;;;;5065201;28;20587;-66
2023/10/15 11:48:11;;;;;;;1999.90;999.90;;;;;;;;;;5066391;28;20222;-64
2023/10/15 11:50:40;;;;;;;1999.90;999.90;;;;;;;;;;5066299;28;20217;-65
2023/10/15 11:53:07;;;;;;;1999.90;999.90;;;;;;;;;;5065228;28;20248;-65
2023/10/15 11:55:37;;;;;;;1999.90;999.90;;;;;;;;;;5066742;28;20191;-65
2023/10/15 11:58:10;;;;;;;1999.90;999.90;;;;;;;;;;5065598;28;20197;-69
2023/10/15 12:00:39;;;;;;;1999.90;999.90;;;;;;;;;;5066719;28;20261;-65
2023/10/15 12:03:08;;;;;;;1999.90;999.90;;;;;;;;;;5064712;28;20254;-67
2023/10/15 12:05:37;;;;;;;1999.90;999.90;;;;;;;;;;5071352;28;20207;-68
2023/10/15 12:08:05;;;;;;;1999.90;999.90;;;;;;;;;;5084252;28;20673;-65
2023/10/15 12:10:33;;;;;;;1999.90;999.90;;;;;;;;;;5086675;28;20199;-66
2023/10/15 12:13:00;;;;;;;1999.90;999.90;;;;;;;;;;5085598;28;20684;-67
2023/10/15 12:15:30;;;;;;;1999.90;999.90;;;;;;;;;;5084841;28;20205;-68
2023/10/15 12:17:57;;;;;;;1999.90;999.90;;;;;;;;;;5086814;28;20276;-64
2023/10/15 12:20:26;;;;;;;1999.90;999.90;;;;;;;;;;5085781;28;20653;-65
2023/10/15 12:22:55;;;;;;;1999.90;999.90;;;;;;;;;;5086048;28;20297;-65
2023/10/15 12:25:22;;;;;;;1999.90;999.90;;;;;;;;;;5084476;28;20193;-64
2023/10/15 12:27:50;;;;;;;1999.90;999.90;;;;;;;;;;5086450;28;20209;-65
2023/10/15 12:30:23;;;;;;;1999.90;999.90;;;;;;;;;;5085154;28;20239;-63
2023/10/15 12:32:51;;;;;;;1999.90;999.90;;;;;;;;;;5086030;28;20232;-64
2023/10/15 12:35:19;;;;;;;1999.90;999.90;;;;;;;;;;5067968;28;20648;-64
2023/10/15 12:37:46;;;;;;;1999.90;999.90;;;;;;;;;;5063877;28;20200;-65
2023/10/15 12:40:21;;;;;;;1999.90;999.90;;;;;;;;;;5065460;28;20205;-63
2023/10/15 12:42:49;;;;;;;1999.90;999.90;;;;;;;;;;5065274;28;20229;-65
2023/10/15 12:45:16;;;;;;;1999.90;999.90;;;;;;;;;;5065458;28;20208;-64
2023/10/15 12:47:44;;;;;;;1999.90;999.90;;;;;;;;;;5066137;28;20879;-63
2023/10/15 12:50:14;;;;;;;1999.90;999.90;;;;;;;;;;5063742;28;20187;-65
2023/10/15 12:52:42;;;;;;;1999.90;999.90;;;;;;;;;;5065898;28;20615;-64
2023/10/15 12:55:09;;;;;;;1999.90;999.90;;;;;;;;;;5064942;28;20195;-63
2023/10/15 12:57:38;;;;;;;1999.90;999.90;;;;;;;;;;5070099;28;20203;-67
2023/10/15 13:00:11;;;;;;;1999.90;999.90;;;;;;;;;;5067825;28;20198;-64
2023/10/15 13:02:39;;;;;;;1999.90;999.90;;;;;;;;;;5069360;28;20206;-63
2023/10/15 13:05:07;;;;;;;1999.90;999.90;;;;;;;;;;5069844;28;20202;-63
2023/10/15 13:07:35;;;;;;;1999.90;999.90;;;;;;;;;;5089737;28;20228;-65
2023/10/15 13:10:02;;;;;;;1999.90;999.90;;;;;;;;;;5089746;28;20255;-64
2023/10/15 13:12:31;;;;;;;1999.90;999.90;;;;;;;;;;5088861;28;20185;-65
2023/10/15 13:15:00;;;;;;;1999.90;999.90;;;;;;;;;;5089873;28;20218;-64
2023/10/15 13:17:27;;;;;;;1999.90;999.90;;;;;;;;;;5089362;28;20672;-65
2023/10/15 13:19:55;;;;;;;1999.90;999.90;;;;;;;;;;5090271;28;20190;-65
2023/10/15 13:22:22;;;;;;;1999.90;999.90;;;;;;;;;;5088654;28;20781;-65
2023/10/15 13:24:50;;;;;;;1999.90;999.90;;;;;;;;;;5089612;28;20199;-65
2023/10/15 13:27:17;;;;;;;1999.90;999.90;;;;;;;;;;5089306;28;20662;-64
2023/10/15 13:29:46;;;;;;;1999.90;999.90;;;;;;;;;;5088944;28;20710;-63
2023/10/15 13:32:16;;;;;;;1999.90;999.90;;;;;;;;;;5089146;28;20181;-64
2023/10/15 13:34:43;;;;;;;1999.90;999.90;;;;;;;;;;5084676;28;20217;-64
2023/10/15 13:37:10;;;;;;;1999.90;999.90;;;;;;;;;;5068737;28;20203;-65
2023/10/15 13:39:39;;;;;;;1999.90;999.90;;;;;;;;;;5068854;28;20199;-63
2023/10/15 13:42:06;;;;;;;1999.90;999.90;;;;;;;;;;5068165;28;20195;-64
2023/10/15 13:44:34;;;;;;;1999.90;999.90;;;;;;;;;;5067771;28;20202;-63
2023/10/15 13:47:05;;;;;;;1999.90;999.90;;;;;;;;;;5068098;28;20191;-64
2023/10/15 13:49:34;;;;;;;1999.90;999.90;;;;;;;;;;5069269;28;20227;-63
2023/10/15 13:52:03;;;;;;;1999.90;999.90;;;;;;;;;;5067953;28;20195;-64
2023/10/15 13:54:31;;;;;;;1999.90;999.90;;;;;;;;;;5067280;28;20217;-66